createdAt,value
2018-03-07T00:00:47.916Z,94.43
2018-03-07T00:03:16.291Z,94.43
2018-03-07T00:05:44.551Z,94.59
2018-03-07T00:08:12.979Z,94.28
2018-03-07T00:10:40.539Z,93.97
2018-03-07T00:13:08.078Z,93.74
2018-03-07T00:15:36.629Z,94.17
2018-03-07T00:18:04.174Z,94.09
2018-03-07T00:20:31.713Z,93.76
2018-03-07T00:23:00.194Z,93.29
2018-03-07T00:25:27.751Z,94.86
2018-03-07T00:27:55.946Z,94.32
2018-03-07T00:30:24.275Z,94.94
2018-03-07T00:32:51.832Z,95.27
2018-03-07T00:35:20.217Z,94.91
2018-03-07T00:37:48.510Z,94.54
2018-03-07T00:40:17.003Z,95.22
2018-03-07T00:42:45.258Z,94.50
2018-03-07T00:45:13.766Z,95.16
2018-03-07T00:47:42.211Z,95.33
2018-03-07T00:50:09.803Z,95.69
2018-03-07T00:52:37.392Z,95.32
2018-03-07T00:55:05.650Z,95.64
2018-03-07T00:57:34.098Z,95.42
2018-03-07T01:00:01.807Z,95.09
2018-03-07T01:02:30.298Z,95.32
2018-03-07T01:04:57.847Z,95.48
2018-03-07T01:07:25.430Z,95.70
2018-03-07T01:09:52.971Z,95.07
2018-03-07T01:12:21.483Z,94.74
2018-03-07T01:14:49.033Z,94.10
2018-03-07T01:17:16.620Z,94.50
2018-03-07T01:19:45.004Z,93.62
2018-03-07T01:22:13.343Z,93.78
2018-03-07T01:24:41.615Z,93.54
2018-03-07T01:27:09.945Z,93.38
2018-03-07T01:29:38.419Z,93.55
2018-03-07T01:32:06.704Z,93.65
2018-03-07T01:34:35.218Z,94.37
2018-03-07T01:37:02.773Z,94.82
2018-03-07T01:39:31.298Z,95.23
2018-03-07T01:41:58.891Z,95.77
2018-03-07T01:44:26.499Z,95.73
2018-03-07T01:46:54.109Z,95.45
2018-03-07T01:49:22.463Z,95.68
2018-03-07T01:52:01.757Z,95.93
2018-03-07T01:54:30.137Z,95.64
2018-03-07T01:56:57.959Z,95.90
2018-03-07T01:59:26.324Z,94.24
2018-03-07T02:01:53.882Z,94.27
2018-03-07T02:04:21.438Z,94.22
2018-03-07T02:06:48.990Z,94.81
2018-03-07T02:09:16.546Z,95.09
2018-03-07T02:11:44.089Z,95.64
2018-03-07T02:14:11.653Z,95.78
2018-03-07T02:16:39.209Z,95.60
2018-03-07T02:19:06.760Z,95.32
2018-03-07T02:21:34.306Z,94.50
2018-03-07T02:24:02.765Z,94.43
2018-03-07T02:26:30.307Z,94.63
2018-03-07T02:28:57.843Z,94.34
2018-03-07T02:31:25.394Z,94.20
2018-03-07T02:33:52.939Z,94.08
2018-03-07T02:36:32.499Z,94.28
2018-03-07T02:39:00.092Z,95.08
2018-03-07T02:41:28.494Z,95.73
2018-03-07T02:43:56.051Z,95.76
2018-03-07T02:46:23.611Z,94.42
2018-03-07T02:48:51.974Z,94.22
2018-03-07T02:51:20.342Z,93.43
2018-03-07T02:53:47.886Z,93.46
2018-03-07T02:56:15.444Z,94.39
2018-03-07T02:58:43.058Z,94.96
2018-03-07T03:01:10.618Z,94.01
2018-03-07T03:03:38.201Z,94.44
2018-03-07T03:06:05.750Z,95.30
2018-03-07T03:08:33.311Z,95.76
2018-03-07T03:11:01.779Z,96.09
2018-03-07T03:13:29.346Z,96.28
2018-03-07T03:15:56.895Z,95.21
2018-03-07T03:18:25.383Z,94.37
2018-03-07T03:20:52.942Z,95.24
2018-03-07T03:23:21.342Z,94.00
2018-03-07T03:25:48.889Z,94.51
2018-03-07T03:28:16.474Z,93.87
2018-03-07T03:30:44.073Z,94.34
2018-03-07T03:33:12.539Z,93.85
2018-03-07T03:35:40.984Z,94.89
2018-03-07T03:38:09.328Z,95.15
2018-03-07T03:40:36.903Z,95.69
2018-03-07T03:43:04.458Z,96.11
2018-03-07T03:45:32.014Z,96.38
2018-03-07T03:48:00.554Z,96.52
2018-03-07T03:50:28.115Z,96.62
2018-03-07T03:52:55.719Z,96.67
2018-03-07T03:55:24.170Z,96.83
2018-03-07T03:57:52.439Z,96.98
2018-03-07T04:00:19.986Z,96.96
2018-03-07T04:02:47.574Z,96.80
2018-03-07T04:05:15.171Z,96.72
2018-03-07T04:07:43.658Z,96.39
2018-03-07T04:10:11.250Z,95.59
2018-03-07T04:12:38.796Z,95.66
2018-03-07T04:15:07.293Z,95.49
2018-03-07T04:17:34.838Z,95.89
2018-03-07T04:20:03.135Z,96.27
2018-03-07T04:22:30.713Z,96.55
2018-03-07T04:24:58.273Z,96.22
2018-03-07T04:27:25.867Z,96.31
2018-03-07T04:29:53.426Z,95.58
2018-03-07T04:32:20.979Z,95.67
2018-03-07T04:34:48.526Z,96.20
2018-03-07T04:37:17.026Z,96.50
2018-03-07T04:39:44.621Z,96.76
2018-03-07T04:42:12.974Z,96.68
2018-03-07T04:44:40.522Z,96.83
2018-03-07T04:47:08.799Z,96.72
2018-03-07T04:49:37.178Z,96.10
2018-03-07T04:52:04.722Z,96.18
2018-03-07T04:54:32.346Z,96.46
2018-03-07T04:57:00.603Z,97.02
2018-03-07T04:59:29.034Z,97.11
2018-03-07T05:01:56.599Z,97.07
2018-03-07T05:04:25.091Z,96.98
2018-03-07T05:06:53.451Z,97.28
2018-03-07T05:09:21.047Z,97.31
2018-03-07T05:11:49.379Z,97.20
2018-03-07T05:14:17.663Z,97.50
2018-03-07T05:16:45.220Z,97.44
2018-03-07T05:19:12.782Z,97.44
2018-03-07T05:21:41.154Z,97.24
2018-03-07T05:24:08.714Z,97.11
2018-03-07T05:26:36.346Z,97.17
2018-03-07T05:29:03.906Z,97.31
2018-03-07T05:31:31.464Z,97.35
2018-03-07T05:33:59.083Z,97.31
2018-03-07T05:36:26.650Z,97.33
2018-03-07T05:38:55.123Z,97.37
2018-03-07T05:41:22.780Z,96.83
2018-03-07T05:43:51.169Z,96.78
2018-03-07T05:46:18.739Z,96.16
2018-03-07T05:48:47.434Z,95.19
2018-03-07T05:51:16.603Z,94.44
2018-03-07T05:53:45.351Z,95.04
2018-03-07T05:56:14.205Z,95.69
2018-03-07T05:58:41.815Z,95.98
2018-03-07T06:01:09.987Z,95.61
2018-03-07T06:03:37.569Z,94.82
2018-03-07T06:06:05.199Z,95.36
2018-03-07T06:08:32.760Z,95.63
2018-03-07T06:11:00.311Z,96.18
2018-03-07T06:13:27.876Z,96.47
2018-03-07T06:15:57.256Z,96.69
2018-03-07T06:18:24.851Z,96.71
2018-03-07T06:20:52.402Z,96.68
2018-03-07T06:23:20.003Z,96.88
2018-03-07T06:25:47.578Z,96.68
2018-03-07T06:28:15.142Z,96.67
2018-03-07T06:30:42.743Z,95.77
2018-03-07T06:33:10.292Z,94.21
2018-03-07T06:35:37.836Z,94.10
2018-03-07T06:38:05.389Z,93.35
2018-03-07T06:40:33.015Z,93.44
2018-03-07T06:43:00.569Z,93.43
2018-03-07T06:45:28.119Z,92.70
2018-03-07T06:47:55.665Z,92.35
2018-03-07T06:50:23.215Z,91.64
2018-03-07T06:52:50.759Z,91.19
2018-03-07T06:55:18.311Z,91.17
2018-03-07T06:57:46.774Z,91.44
2018-03-07T07:00:14.356Z,91.62
2018-03-07T07:02:42.738Z,91.32
2018-03-07T07:05:10.288Z,91.40
2018-03-07T07:07:37.843Z,93.24
2018-03-07T07:10:05.391Z,93.32
2018-03-07T07:12:32.938Z,94.08
2018-03-07T07:15:00.694Z,94.09
2018-03-07T07:17:28.248Z,94.36
2018-03-07T07:19:55.798Z,93.80
2018-03-07T07:22:23.347Z,94.10
2018-03-07T07:24:50.898Z,94.17
2018-03-07T07:27:18.447Z,94.39
2018-03-07T07:29:46.007Z,93.11
2018-03-07T07:32:13.557Z,92.16
2018-03-07T07:34:41.130Z,92.03
2018-03-07T07:37:09.378Z,91.97
2018-03-07T07:39:36.923Z,91.97
2018-03-07T07:42:04.479Z,92.06
2018-03-07T07:44:32.034Z,91.70
2018-03-07T07:46:59.586Z,91.98
2018-03-07T07:49:27.138Z,91.81
2018-03-07T07:51:54.687Z,92.05
2018-03-07T07:54:22.235Z,92.00
2018-03-07T07:56:49.782Z,91.25
2018-03-07T07:59:17.331Z,91.25
2018-03-07T08:01:44.885Z,90.80
2018-03-07T08:04:12.440Z,90.85
2018-03-07T08:06:39.991Z,90.66
2018-03-07T08:09:07.545Z,91.72
2018-03-07T08:11:35.092Z,91.42
2018-03-07T08:14:02.643Z,91.95
2018-03-07T08:16:30.186Z,92.78
2018-03-07T08:18:57.735Z,91.58
2018-03-07T08:21:25.290Z,91.15
2018-03-07T08:23:52.839Z,90.67
2018-03-07T08:26:20.388Z,90.39
2018-03-07T08:28:47.939Z,91.15
2018-03-07T08:31:15.732Z,90.15
2018-03-07T08:33:43.302Z,92.13
2018-03-07T08:36:10.851Z,90.62
2018-03-07T08:38:38.402Z,89.70
2018-03-07T08:41:05.950Z,89.83
2018-03-07T08:43:33.496Z,89.73
2018-03-07T08:46:01.081Z,89.00
2018-03-07T08:48:28.626Z,90.18
2018-03-07T08:50:56.175Z,89.76
2018-03-07T08:53:23.728Z,89.09
2018-03-07T08:55:51.287Z,89.55
2018-03-07T08:58:18.840Z,91.24
2018-03-07T09:00:46.394Z,89.33
2018-03-07T09:03:13.966Z,90.33
2018-03-07T09:05:41.522Z,89.14
2018-03-07T09:08:09.085Z,88.80
2018-03-07T09:10:36.634Z,90.01
2018-03-07T09:13:04.188Z,91.35
2018-03-07T09:15:31.771Z,91.01
2018-03-07T09:17:59.382Z,92.16
2018-03-07T09:20:26.933Z,91.81
2018-03-07T09:22:54.481Z,92.33
2018-03-07T09:25:22.053Z,91.97
2018-03-07T09:27:50.439Z,91.68
2018-03-07T09:30:17.992Z,92.08
2018-03-07T09:32:45.538Z,92.14
2018-03-07T09:35:13.083Z,92.50
2018-03-07T09:37:40.634Z,92.47
2018-03-07T09:40:08.185Z,92.33
2018-03-07T09:42:36.626Z,91.42
2018-03-07T09:45:04.176Z,91.29
2018-03-07T09:47:31.738Z,90.97
2018-03-07T09:49:59.285Z,91.17
2018-03-07T09:52:26.830Z,91.47
2018-03-07T09:54:54.401Z,91.25
2018-03-07T09:57:21.962Z,91.61
2018-03-07T09:59:49.506Z,90.33
2018-03-07T10:02:17.051Z,89.25
2018-03-07T10:04:45.537Z,90.81
2018-03-07T10:07:13.083Z,90.98
2018-03-07T10:09:40.675Z,88.32
2018-03-07T10:12:08.223Z,90.25
2018-03-07T10:14:35.821Z,90.12
2018-03-07T10:17:03.346Z,91.40
2018-03-07T10:19:30.893Z,90.58
2018-03-07T10:21:58.436Z,89.73
2018-03-07T10:24:25.982Z,89.98
2018-03-07T10:26:53.530Z,89.96
2018-03-07T10:29:21.075Z,89.69
2018-03-07T10:31:48.622Z,89.41
2018-03-07T10:34:16.984Z,88.38
2018-03-07T10:36:45.390Z,87.85
2018-03-07T10:39:12.946Z,88.02
2018-03-07T10:41:40.495Z,87.54
2018-03-07T10:44:08.830Z,87.37
2018-03-07T10:46:37.209Z,87.43
2018-03-07T10:49:05.530Z,87.96
2018-03-07T10:51:33.770Z,87.92
2018-03-07T10:54:01.362Z,87.01
2018-03-07T10:56:28.914Z,86.75
2018-03-07T10:58:56.463Z,88.03
2018-03-07T11:01:24.059Z,86.52
2018-03-07T11:03:51.634Z,86.14
2018-03-07T11:06:19.175Z,86.57
2018-03-07T11:08:46.722Z,87.59
2018-03-07T11:11:14.272Z,87.58
2018-03-07T11:13:41.819Z,85.37
2018-03-07T11:16:09.362Z,87.07
2018-03-07T11:18:37.825Z,86.18
2018-03-07T11:21:05.374Z,85.71
2018-03-07T11:23:32.922Z,87.46
2018-03-07T11:26:00.466Z,86.55
2018-03-07T11:28:28.013Z,86.28
2018-03-07T11:30:56.454Z,86.27
2018-03-07T11:33:23.999Z,86.95
2018-03-07T11:35:51.549Z,86.97
2018-03-07T11:38:19.090Z,87.09
2018-03-07T11:40:46.632Z,87.35
2018-03-07T11:43:14.176Z,87.82
2018-03-07T11:45:41.721Z,86.78
2018-03-07T11:48:09.275Z,86.95
2018-03-07T11:50:36.819Z,86.65
2018-03-07T11:53:04.371Z,86.92
2018-03-07T11:55:31.915Z,88.80
2018-03-07T11:57:59.491Z,87.86
2018-03-07T12:00:27.034Z,87.36
2018-03-07T12:02:54.578Z,86.57
2018-03-07T12:05:22.127Z,87.66
2018-03-07T12:07:49.683Z,86.42
2018-03-07T12:10:17.494Z,86.46
2018-03-07T12:12:45.035Z,87.10
2018-03-07T12:15:12.591Z,86.89
2018-03-07T12:17:40.196Z,86.99
2018-03-07T12:20:07.719Z,86.70
2018-03-07T12:22:35.269Z,87.12
2018-03-07T12:25:02.828Z,86.94
2018-03-07T12:27:30.382Z,87.72
2018-03-07T12:29:57.928Z,88.40
2018-03-07T12:32:25.501Z,87.98
2018-03-07T12:34:53.099Z,88.71
2018-03-07T12:37:21.573Z,87.99
2018-03-07T12:39:49.123Z,88.24
2018-03-07T12:42:16.669Z,87.56
2018-03-07T12:44:44.214Z,87.29
2018-03-07T12:47:12.007Z,88.13
2018-03-07T12:49:39.557Z,87.13
2018-03-07T12:52:07.099Z,87.68
2018-03-07T12:54:34.655Z,88.96
2018-03-07T12:57:02.194Z,89.67
2018-03-07T12:59:29.742Z,88.62
2018-03-07T13:01:57.391Z,87.52
2018-03-07T13:04:24.936Z,89.29
2018-03-07T13:06:52.488Z,88.31
2018-03-07T13:09:20.844Z,88.41
2018-03-07T13:11:49.294Z,88.50
2018-03-07T13:14:16.896Z,88.35
2018-03-07T13:16:44.438Z,88.72
2018-03-07T13:19:12.022Z,88.73
2018-03-07T13:21:39.567Z,89.21
2018-03-07T13:24:07.118Z,89.07
2018-03-07T13:26:34.659Z,89.62
2018-03-07T13:29:02.242Z,89.58
2018-03-07T13:31:29.790Z,90.15
2018-03-07T13:33:59.239Z,90.38
2018-03-07T13:36:26.781Z,90.87
2018-03-07T13:38:54.567Z,90.37
2018-03-07T13:41:22.143Z,90.35
2018-03-07T13:43:50.687Z,90.69
2018-03-07T13:46:18.271Z,90.74
2018-03-07T13:48:45.853Z,90.47
2018-03-07T13:51:13.403Z,90.27
2018-03-07T13:53:41.782Z,89.60
2018-03-07T13:56:10.242Z,91.05
2018-03-07T13:58:37.787Z,90.09
2018-03-07T14:01:06.028Z,89.94
2018-03-07T14:03:33.581Z,90.69
2018-03-07T14:06:01.127Z,90.70
2018-03-07T14:08:28.671Z,89.96
2018-03-07T14:10:56.255Z,89.79
2018-03-07T14:13:23.848Z,90.78
2018-03-07T14:15:51.400Z,90.86
2018-03-07T14:18:18.946Z,90.73
2018-03-07T14:20:46.494Z,90.04
2018-03-07T14:23:14.086Z,90.01
2018-03-07T14:25:41.640Z,89.98
2018-03-07T14:28:09.221Z,90.95
2018-03-07T14:30:37.562Z,90.12
2018-03-07T14:33:05.159Z,90.29
2018-03-07T14:35:32.708Z,90.74
2018-03-07T14:38:00.247Z,90.62
2018-03-07T14:40:27.791Z,90.47
2018-03-07T14:42:55.339Z,90.83
2018-03-07T14:45:22.946Z,91.44
2018-03-07T14:47:50.488Z,91.02
2018-03-07T14:50:18.032Z,90.71
2018-03-07T14:52:46.499Z,90.73
2018-03-07T14:55:14.846Z,91.01
2018-03-07T14:57:43.168Z,90.82
2018-03-07T15:00:10.716Z,91.77
2018-03-07T15:02:38.309Z,92.27
2018-03-07T15:05:05.863Z,91.76
2018-03-07T15:07:33.416Z,91.48
2018-03-07T15:10:00.961Z,92.34
2018-03-07T15:12:28.512Z,92.11
2018-03-07T15:14:56.759Z,92.20
2018-03-07T15:17:24.299Z,91.87
2018-03-07T15:19:51.853Z,92.28
2018-03-07T15:22:19.403Z,93.07
2018-03-07T15:24:46.945Z,92.89
2018-03-07T15:27:14.487Z,93.21
2018-03-07T15:29:42.031Z,92.80
2018-03-07T15:32:10.304Z,93.25
2018-03-07T15:34:37.861Z,93.61
2018-03-07T15:37:05.398Z,93.26
2018-03-07T15:39:32.985Z,92.91
2018-03-07T15:42:00.522Z,93.28
2018-03-07T15:44:28.066Z,93.18
2018-03-07T15:46:55.614Z,92.97
2018-03-07T15:49:23.239Z,92.85
2018-03-07T15:51:50.830Z,92.69
2018-03-07T15:54:18.354Z,92.56
2018-03-07T15:56:46.802Z,92.83
2018-03-07T15:59:15.166Z,92.73
2018-03-07T16:01:42.766Z,92.55
2018-03-07T16:04:11.106Z,92.21
2018-03-07T16:06:38.655Z,92.45
2018-03-07T16:09:06.200Z,92.53
2018-03-07T16:11:33.749Z,92.83
2018-03-07T16:14:01.310Z,92.68
2018-03-07T16:16:28.859Z,92.93
2018-03-07T16:18:56.412Z,92.79
2018-03-07T16:21:23.990Z,93.35
2018-03-07T16:23:51.534Z,93.42
2018-03-07T16:26:19.119Z,94.02
2018-03-07T16:28:46.684Z,93.79
2018-03-07T16:31:14.271Z,93.96
2018-03-07T16:33:42.758Z,93.71
2018-03-07T16:36:10.352Z,94.35
2018-03-07T16:38:37.893Z,94.11
2018-03-07T16:41:06.361Z,93.59
2018-03-07T16:43:33.951Z,93.05
2018-03-07T16:46:01.506Z,93.35
2018-03-07T16:48:29.054Z,93.50
2018-03-07T16:50:56.611Z,93.53
2018-03-07T16:53:24.164Z,92.98
2018-03-07T16:55:51.716Z,92.75
2018-03-07T16:58:19.271Z,93.12
2018-03-07T17:00:47.562Z,93.39
2018-03-07T17:03:15.118Z,93.39
2018-03-07T17:05:42.671Z,93.50
2018-03-07T17:08:10.394Z,93.53
2018-03-07T17:10:38.029Z,93.67
2018-03-07T17:13:06.614Z,93.87
2018-03-07T17:15:35.272Z,93.47
2018-03-07T17:18:02.904Z,93.53
2018-03-07T17:20:30.607Z,93.39
2018-03-07T17:22:58.227Z,93.30
2018-03-07T17:25:25.843Z,93.11
2018-03-07T17:27:53.937Z,93.24
2018-03-07T17:30:21.554Z,93.45
2018-03-07T17:33:00.808Z,93.64
2018-03-07T17:35:28.391Z,93.85
2018-03-07T17:37:57.064Z,93.59
2018-03-07T17:40:24.698Z,93.74
2018-03-07T17:42:52.384Z,93.17
2018-03-07T17:45:20.172Z,93.76
2018-03-07T17:47:47.849Z,93.92
2018-03-07T17:50:15.551Z,93.92
2018-03-07T17:52:43.399Z,93.77
2018-03-07T17:55:11.015Z,93.61
2018-03-07T17:57:38.688Z,93.63
2018-03-07T18:00:06.384Z,93.74
2018-03-07T18:02:34.058Z,93.92
2018-03-07T18:05:01.724Z,93.78
2018-03-07T18:07:29.428Z,93.66
2018-03-07T18:09:57.039Z,93.72
2018-03-07T18:12:24.727Z,93.79
2018-03-07T18:14:52.419Z,93.95
2018-03-07T18:17:20.131Z,93.88
2018-03-07T18:19:47.917Z,94.47
2018-03-07T18:22:15.547Z,94.18
2018-03-07T18:24:43.199Z,94.08
2018-03-07T18:27:11.799Z,94.42
2018-03-07T18:29:39.444Z,94.68
2018-03-07T18:32:07.125Z,94.58
2018-03-07T18:34:35.693Z,95.10
2018-03-07T18:37:03.334Z,94.98
2018-03-07T18:39:31.987Z,94.76
2018-03-07T18:41:59.614Z,94.17
2018-03-07T18:44:27.257Z,94.00
2018-03-07T18:46:54.939Z,94.02
2018-03-07T18:49:22.523Z,94.10
2018-03-07T18:51:50.212Z,94.54
2018-03-07T18:54:17.989Z,94.30
2018-03-07T18:56:45.866Z,94.22
2018-03-07T18:59:14.890Z,94.01
2018-03-07T19:01:42.702Z,94.38
2018-03-07T19:04:11.291Z,94.03
2018-03-07T19:06:38.995Z,93.70
2018-03-07T19:09:06.647Z,93.58
2018-03-07T19:11:36.668Z,93.66
2018-03-07T19:14:04.266Z,93.49
2018-03-07T19:16:31.927Z,93.35
2018-03-07T19:18:59.472Z,93.25
2018-03-07T19:21:28.679Z,93.74
2018-03-07T19:23:56.294Z,93.52
2018-03-07T19:26:23.893Z,93.71
2018-03-07T19:28:51.496Z,94.08
2018-03-07T19:31:20.527Z,93.83
2018-03-07T19:33:48.121Z,94.14
2018-03-07T19:36:16.440Z,94.80
2018-03-07T19:38:45.311Z,95.04
2018-03-07T19:41:12.920Z,94.65
2018-03-07T19:43:41.919Z,94.75
2018-03-07T19:46:13.757Z,94.62
2018-03-07T19:48:42.722Z,94.24
2018-03-07T19:51:11.767Z,94.70
2018-03-07T19:53:40.172Z,94.42
2018-03-07T19:56:09.026Z,95.33
2018-03-07T19:58:38.171Z,95.29
2018-03-07T20:01:06.446Z,94.63
2018-03-07T20:03:35.574Z,94.61
2018-03-07T20:06:04.214Z,94.72
2018-03-07T20:08:33.910Z,95.22
2018-03-07T20:11:02.284Z,94.74
2018-03-07T20:13:29.883Z,94.82
2018-03-07T20:15:57.481Z,94.84
2018-03-07T20:18:26.628Z,94.99
2018-03-07T20:20:55.116Z,94.94
2018-03-07T20:23:23.534Z,94.37
2018-03-07T20:25:53.681Z,94.28
2018-03-07T20:28:22.959Z,93.76
2018-03-07T20:30:52.289Z,93.95
2018-03-07T20:33:21.495Z,94.21
2018-03-07T20:35:50.652Z,94.82
2018-03-07T20:38:21.416Z,94.99
2018-03-07T20:40:49.091Z,94.97
2018-03-07T20:43:16.691Z,94.95
2018-03-07T20:45:45.089Z,94.82
2018-03-07T20:48:12.742Z,95.14
2018-03-07T20:50:43.482Z,94.95
2018-03-07T20:53:11.851Z,95.04
2018-03-07T20:55:40.259Z,94.80
2018-03-07T20:58:08.909Z,95.60
2018-03-07T21:00:36.569Z,95.27
2018-03-07T21:03:04.329Z,95.82
2018-03-07T21:05:31.964Z,95.24
2018-03-07T21:07:59.652Z,95.37
2018-03-07T21:10:28.242Z,94.61
2018-03-07T21:12:56.922Z,94.74
2018-03-07T21:15:24.638Z,95.36
2018-03-07T21:17:52.322Z,95.76
2018-03-07T21:20:19.927Z,96.10
2018-03-07T21:22:47.837Z,96.18
2018-03-07T21:25:16.362Z,95.49
2018-03-07T21:27:45.431Z,95.26
2018-03-07T21:30:13.101Z,94.47
2018-03-07T21:32:40.869Z,94.74
2018-03-07T21:35:08.474Z,94.91
2018-03-07T21:37:54.271Z,95.32
2018-03-07T21:40:24.219Z,94.64
2018-03-07T21:42:52.428Z,94.46
2018-03-07T21:45:23.354Z,94.44
2018-03-07T21:47:51.133Z,95.00
2018-03-07T21:50:18.997Z,94.93
2018-03-07T21:52:47.784Z,95.14
2018-03-07T21:55:15.459Z,95.04
2018-03-07T21:57:43.629Z,94.82
2018-03-07T22:00:11.292Z,94.38
2018-03-07T22:02:38.981Z,95.17
2018-03-07T22:05:06.576Z,94.68
2018-03-07T22:07:34.178Z,94.69
2018-03-07T22:10:01.843Z,95.16
2018-03-07T22:12:29.707Z,94.86
2018-03-07T22:14:57.580Z,94.53
2018-03-07T22:17:25.266Z,94.96
2018-03-07T22:19:53.981Z,95.14
2018-03-07T22:22:22.650Z,95.27
2018-03-07T22:24:50.298Z,95.57
2018-03-07T22:27:17.922Z,95.43
2018-03-07T22:29:45.608Z,95.66
2018-03-07T22:32:13.213Z,94.69
2018-03-07T22:34:40.902Z,94.73
2018-03-07T22:37:08.588Z,94.75
2018-03-07T22:39:36.274Z,94.74
2018-03-07T22:42:03.875Z,95.09
2018-03-07T22:44:31.477Z,95.48
2018-03-07T22:46:59.075Z,95.55
2018-03-07T22:49:26.678Z,95.83
2018-03-07T22:51:54.286Z,95.95
2018-03-07T22:54:22.000Z,96.00
2018-03-07T22:56:49.663Z,95.81
2018-03-07T22:59:17.351Z,95.33
2018-03-07T23:01:44.946Z,95.22
2018-03-07T23:04:12.548Z,95.57
2018-03-07T23:06:40.148Z,95.35
2018-03-07T23:09:07.747Z,95.40
2018-03-07T23:11:35.354Z,95.57
2018-03-07T23:14:03.757Z,95.93
2018-03-07T23:16:31.355Z,96.50
2018-03-07T23:18:59.062Z,96.94
2018-03-07T23:21:26.739Z,97.19
2018-03-07T23:23:54.338Z,96.65
2018-03-07T23:26:21.942Z,96.56
2018-03-07T23:28:49.536Z,96.88
2018-03-07T23:31:18.586Z,97.04
2018-03-07T23:36:20.887Z,97.96
2018-03-07T23:38:49.578Z,97.87
2018-03-07T23:41:17.255Z,97.05
2018-03-07T23:43:44.855Z,97.13
2018-03-07T23:46:13.284Z,97.38
2018-03-07T23:48:41.050Z,97.31
2018-03-07T23:51:08.917Z,97.46
2018-03-07T23:53:36.515Z,97.04
2018-03-07T23:56:04.121Z,97.16
2018-03-07T23:58:31.715Z,97.28
